sensor_id;sensor_type;location;lat;lon;timestamp;P1;durP1;ratioP1;P2;durP2;ratioP2
61962;SDS011;47927;42.646;23.096;2022-08-18T00:02:06;7.45;;;4.45;;
61962;SDS011;47927;42.646;23.096;2022-08-18T00:04:33;5.28;;;3.88;;
61962;SDS011;47927;42.646;23.096;2022-08-18T00:07:06;6.97;;;4.07;;
61962;SDS011;47927;42.646;23.096;2022-08-18T00:09:37;5.72;;;3.92;;
61962;SDS011;47927;42.646;23.096;2022-08-18T00:12:05;6.05;;;3.83;;
61962;SDS011;47927;42.646;23.096;2022-08-18T00:14:40;6.78;;;4.15;;
61962;SDS011;47927;42.646;23.096;2022-08-18T00:17:06;8.45;;;4.15;;
61962;SDS011;47927;42.646;23.096;2022-08-18T00:19:32;5.68;;;4.13;;
61962;SDS011;47927;42.646;23.096;2022-08-18T00:21:58;8.45;;;4.45;;
61962;SDS011;47927;42.646;23.096;2022-08-18T00:24:24;6.25;;;3.92;;
61962;SDS011;47927;42.646;23.096;2022-08-18T00:26:50;10.05;;;4.22;;
61962;SDS011;47927;42.646;23.096;2022-08-18T00:29:15;10.10;;;4.57;;
61962;SDS011;47927;42.646;23.096;2022-08-18T00:31:41;6.28;;;4.18;;
61962;SDS011;47927;42.646;23.096;2022-08-18T00:34:06;6.97;;;4.20;;
61962;SDS011;47927;42.646;23.096;2022-08-18T00:36:32;5.38;;;4.18;;
61962;SDS011;47927;42.646;23.096;2022-08-18T00:38:59;6.82;;;4.32;;
61962;SDS011;47927;42.646;23.096;2022-08-18T00:41:25;6.22;;;4.00;;
61962;SDS011;47927;42.646;23.096;2022-08-18T00:43:52;7.00;;;4.25;;
61962;SDS011;47927;42.646;23.096;2022-08-18T00:46:27;9.23;;;4.20;;
61962;SDS011;47927;42.646;23.096;2022-08-18T00:48:54;7.90;;;4.32;;
61962;SDS011;47927;42.646;23.096;2022-08-18T00:51:28;8.32;;;4.72;;
61962;SDS011;47927;42.646;23.096;2022-08-18T00:54:05;6.53;;;4.03;;
61962;SDS011;47927;42.646;23.096;2022-08-18T00:56:36;6.28;;;4.18;;
61962;SDS011;47927;42.646;23.096;2022-08-18T00:59:28;7.32;;;4.45;;
61962;SDS011;47927;42.646;23.096;2022-08-18T01:02:01;7.15;;;4.40;;
61962;SDS011;47927;42.646;23.096;2022-08-18T01:04:34;8.52;;;4.32;;
61962;SDS011;47927;42.646;23.096;2022-08-18T01:07:11;6.43;;;4.28;;
61962;SDS011;47927;42.646;23.096;2022-08-18T01:09:47;9.50;;;4.40;;
61962;SDS011;47927;42.646;23.096;2022-08-18T01:12:13;6.68;;;4.55;;
61962;SDS011;47927;42.646;23.096;2022-08-18T01:14:39;8.52;;;5.15;;
61962;SDS011;47927;42.646;23.096;2022-08-18T01:17:05;6.20;;;4.13;;
61962;SDS011;47927;42.646;23.096;2022-08-18T01:19:49;6.95;;;4.40;;
61962;SDS011;47927;42.646;23.096;2022-08-18T01:25:07;9.35;;;4.35;;
61962;SDS011;47927;42.646;23.096;2022-08-18T01:27:53;6.18;;;4.20;;
61962;SDS011;47927;42.646;23.096;2022-08-18T01:30:21;7.93;;;4.72;;
61962;SDS011;47927;42.646;23.096;2022-08-18T01:32:49;7.63;;;4.95;;
61962;SDS011;47927;42.646;23.096;2022-08-18T01:35:16;5.60;;;4.60;;
61962;SDS011;47927;42.646;23.096;2022-08-18T01:37:45;6.38;;;4.78;;
61962;SDS011;47927;42.646;23.096;2022-08-18T01:40:12;6.10;;;4.70;;
61962;SDS011;47927;42.646;23.096;2022-08-18T01:42:40;7.05;;;4.55;;
61962;SDS011;47927;42.646;23.096;2022-08-18T01:45:10;5.93;;;4.55;;
61962;SDS011;47927;42.646;23.096;2022-08-18T01:47:42;6.78;;;4.75;;
61962;SDS011;47927;42.646;23.096;2022-08-18T01:50:09;7.10;;;4.50;;
61962;SDS011;47927;42.646;23.096;2022-08-18T01:52:37;6.97;;;4.53;;
61962;SDS011;47927;42.646;23.096;2022-08-18T01:55:03;7.72;;;4.68;;
61962;SDS011;47927;42.646;23.096;2022-08-18T01:57:32;8.07;;;4.72;;
61962;SDS011;47927;42.646;23.096;2022-08-18T01:59:59;6.38;;;4.93;;
61962;SDS011;47927;42.646;23.096;2022-08-18T02:02:26;8.02;;;4.68;;
61962;SDS011;47927;42.646;23.096;2022-08-18T02:05:00;5.85;;;4.55;;
61962;SDS011;47927;42.646;23.096;2022-08-18T02:07:29;7.07;;;4.50;;
61962;SDS011;47927;42.646;23.096;2022-08-18T02:09:55;8.82;;;4.78;;
61962;SDS011;47927;42.646;23.096;2022-08-18T02:12:21;8.27;;;5.07;;
61962;SDS011;47927;42.646;23.096;2022-08-18T02:14:46;9.45;;;5.07;;
61962;SDS011;47927;42.646;23.096;2022-08-18T02:17:12;8.07;;;4.95;;
61962;SDS011;47927;42.646;23.096;2022-08-18T02:19:40;6.90;;;4.97;;
61962;SDS011;47927;42.646;23.096;2022-08-18T02:22:13;6.15;;;4.75;;
61962;SDS011;47927;42.646;23.096;2022-08-18T02:24:44;8.50;;;4.97;;
61962;SDS011;47927;42.646;23.096;2022-08-18T02:27:10;7.88;;;4.95;;
61962;SDS011;47927;42.646;23.096;2022-08-18T02:29:37;7.20;;;5.43;;
61962;SDS011;47927;42.646;23.096;2022-08-18T02:32:03;6.68;;;5.25;;
61962;SDS011;47927;42.646;23.096;2022-08-18T02:34:29;8.90;;;5.22;;
61962;SDS011;47927;42.646;23.096;2022-08-18T02:36:54;8.65;;;5.82;;
61962;SDS011;47927;42.646;23.096;2022-08-18T02:39:20;7.70;;;5.68;;
61962;SDS011;47927;42.646;23.096;2022-08-18T02:41:46;7.20;;;4.72;;
61962;SDS011;47927;42.646;23.096;2022-08-18T02:44:11;6.80;;;4.93;;
61962;SDS011;47927;42.646;23.096;2022-08-18T02:46:37;8.43;;;5.40;;
61962;SDS011;47927;42.646;23.096;2022-08-18T02:49:04;7.25;;;5.45;;
61962;SDS011;47927;42.646;23.096;2022-08-18T02:51:30;11.35;;;5.93;;
61962;SDS011;47927;42.646;23.096;2022-08-18T02:53:56;7.72;;;5.93;;
61962;SDS011;47927;42.646;23.096;2022-08-18T02:56:26;7.10;;;5.15;;
61962;SDS011;47927;42.646;23.096;2022-08-18T02:59:00;8.25;;;5.65;;
61962;SDS011;47927;42.646;23.096;2022-08-18T03:01:32;6.85;;;5.50;;
61962;SDS011;47927;42.646;23.096;2022-08-18T03:04:01;6.85;;;5.82;;
61962;SDS011;47927;42.646;23.096;2022-08-18T03:06:27;7.00;;;5.40;;
61962;SDS011;47927;42.646;23.096;2022-08-18T03:08:54;9.43;;;5.78;;
61962;SDS011;47927;42.646;23.096;2022-08-18T03:11:23;7.50;;;5.45;;
61962;SDS011;47927;42.646;23.096;2022-08-18T03:13:50;7.13;;;6.30;;
61962;SDS011;47927;42.646;23.096;2022-08-18T03:16:16;10.30;;;5.57;;
61962;SDS011;47927;42.646;23.096;2022-08-18T03:18:42;10.75;;;5.75;;
61962;SDS011;47927;42.646;23.096;2022-08-18T03:21:11;7.35;;;5.80;;
61962;SDS011;47927;42.646;23.096;2022-08-18T03:23:39;7.72;;;5.88;;
61962;SDS011;47927;42.646;23.096;2022-08-18T03:26:05;8.30;;;5.85;;
61962;SDS011;47927;42.646;23.096;2022-08-18T03:28:36;10.70;;;6.65;;
61962;SDS011;47927;42.646;23.096;2022-08-18T03:31:02;10.15;;;6.05;;
61962;SDS011;47927;42.646;23.096;2022-08-18T03:33:28;7.18;;;5.70;;
61962;SDS011;47927;42.646;23.096;2022-08-18T03:35:53;9.45;;;6.15;;
61962;SDS011;47927;42.646;23.096;2022-08-18T03:38:19;8.85;;;5.88;;
61962;SDS011;47927;42.646;23.096;2022-08-18T03:40:51;8.55;;;5.97;;
61962;SDS011;47927;42.646;23.096;2022-08-18T03:43:35;18.20;;;6.45;;
61962;SDS011;47927;42.646;23.096;2022-08-18T03:46:01;11.10;;;5.65;;
61962;SDS011;47927;42.646;23.096;2022-08-18T03:48:28;7.75;;;5.63;;
61962;SDS011;47927;42.646;23.096;2022-08-18T03:50:54;7.35;;;6.28;;
61962;SDS011;47927;42.646;23.096;2022-08-18T03:53:19;9.43;;;6.32;;
61962;SDS011;47927;42.646;23.096;2022-08-18T03:55:45;7.47;;;6.07;;
61962;SDS011;47927;42.646;23.096;2022-08-18T03:58:11;8.82;;;5.63;;
61962;SDS011;47927;42.646;23.096;2022-08-18T04:00:39;8.15;;;6.13;;
61962;SDS011;47927;42.646;23.096;2022-08-18T04:03:05;8.43;;;6.18;;
61962;SDS011;47927;42.646;23.096;2022-08-18T04:05:32;8.93;;;6.18;;
61962;SDS011;47927;42.646;23.096;2022-08-18T04:07:59;6.47;;;4.65;;
61962;SDS011;47927;42.646;23.096;2022-08-18T04:10:27;6.40;;;5.10;;
61962;SDS011;47927;42.646;23.096;2022-08-18T04:12:52;8.98;;;4.90;;
61962;SDS011;47927;42.646;23.096;2022-08-18T04:15:18;6.18;;;4.45;;
61962;SDS011;47927;42.646;23.096;2022-08-18T04:17:43;7.57;;;4.40;;
61962;SDS011;47927;42.646;23.096;2022-08-18T04:20:10;5.35;;;3.95;;
61962;SDS011;47927;42.646;23.096;2022-08-18T04:22:37;7.00;;;4.55;;
61962;SDS011;47927;42.646;23.096;2022-08-18T04:25:04;6.28;;;4.57;;
61962;SDS011;47927;42.646;23.096;2022-08-18T04:27:33;8.32;;;4.07;;
61962;SDS011;47927;42.646;23.096;2022-08-18T04:30:01;6.85;;;4.60;;
61962;SDS011;47927;42.646;23.096;2022-08-18T04:32:28;6.57;;;3.83;;
61962;SDS011;47927;42.646;23.096;2022-08-18T04:34:55;6.25;;;3.95;;
61962;SDS011;47927;42.646;23.096;2022-08-18T04:37:20;8.20;;;4.00;;
61962;SDS011;47927;42.646;23.096;2022-08-18T04:39:46;6.22;;;3.78;;
61962;SDS011;47927;42.646;23.096;2022-08-18T04:42:12;7.78;;;4.38;;
61962;SDS011;47927;42.646;23.096;2022-08-18T04:44:39;7.50;;;3.90;;
61962;SDS011;47927;42.646;23.096;2022-08-18T04:47:06;5.03;;;3.80;;
61962;SDS011;47927;42.646;23.096;2022-08-18T04:49:36;6.38;;;3.92;;
61962;SDS011;47927;42.646;23.096;2022-08-18T04:52:03;6.10;;;3.65;;
61962;SDS011;47927;42.646;23.096;2022-08-18T04:55:08;7.03;;;4.05;;
61962;SDS011;47927;42.646;23.096;2022-08-18T04:57:34;9.55;;;3.67;;
61962;SDS011;47927;42.646;23.096;2022-08-18T05:00:00;6.78;;;3.63;;
61962;SDS011;47927;42.646;23.096;2022-08-18T05:02:25;5.72;;;3.88;;
61962;SDS011;47927;42.646;23.096;2022-08-18T05:04:51;4.90;;;3.45;;
61962;SDS011;47927;42.646;23.096;2022-08-18T05:07:18;5.75;;;3.80;;
61962;SDS011;47927;42.646;23.096;2022-08-18T05:09:46;6.80;;;3.50;;
61962;SDS011;47927;42.646;23.096;2022-08-18T05:12:12;5.78;;;3.78;;
61962;SDS011;47927;42.646;23.096;2022-08-18T05:14:39;6.75;;;3.72;;
61962;SDS011;47927;42.646;23.096;2022-08-18T05:19:34;4.82;;;3.25;;
61962;SDS011;47927;42.646;23.096;2022-08-18T05:22:01;6.20;;;4.28;;
61962;SDS011;47927;42.646;23.096;2022-08-18T05:24:27;4.55;;;3.40;;
61962;SDS011;47927;42.646;23.096;2022-08-18T05:26:54;7.38;;;3.72;;
61962;SDS011;47927;42.646;23.096;2022-08-18T05:29:20;6.35;;;4.00;;
61962;SDS011;47927;42.646;23.096;2022-08-18T05:31:48;8.15;;;4.35;;
61962;SDS011;47927;42.646;23.096;2022-08-18T05:34:15;6.68;;;4.00;;
61962;SDS011;47927;42.646;23.096;2022-08-18T05:41:52;6.45;;;3.20;;
61962;SDS011;47927;42.646;23.096;2022-08-18T05:44:27;6.35;;;3.15;;
61962;SDS011;47927;42.646;23.096;2022-08-18T05:47:01;4.57;;;2.88;;
61962;SDS011;47927;42.646;23.096;2022-08-18T05:49:30;5.47;;;3.40;;
61962;SDS011;47927;42.646;23.096;2022-08-18T05:52:00;6.97;;;3.17;;
61962;SDS011;47927;42.646;23.096;2022-08-18T05:54:29;7.93;;;3.25;;
61962;SDS011;47927;42.646;23.096;2022-08-18T05:57:26;7.47;;;3.22;;
61962;SDS011;47927;42.646;23.096;2022-08-18T05:59:57;4.15;;;3.05;;
61962;SDS011;47927;42.646;23.096;2022-08-18T06:10:06;6.55;;;2.90;;
61962;SDS011;47927;42.646;23.096;2022-08-18T06:15:09;6.68;;;3.17;;
61962;SDS011;47927;42.646;23.096;2022-08-18T06:17:53;5.90;;;3.42;;
61962;SDS011;47927;42.646;23.096;2022-08-18T06:20:28;9.30;;;3.03;;
61962;SDS011;47927;42.646;23.096;2022-08-18T06:23:15;4.80;;;2.83;;
61962;SDS011;47927;42.646;23.096;2022-08-18T06:29:08;6.35;;;3.13;;
61962;SDS011;47927;42.646;23.096;2022-08-18T06:34:23;6.38;;;3.55;;
61962;SDS011;47927;42.646;23.096;2022-08-18T06:37:10;5.07;;;3.03;;
61962;SDS011;47927;42.646;23.096;2022-08-18T06:39:45;6.55;;;3.13;;
61962;SDS011;47927;42.646;23.096;2022-08-18T06:42:20;6.93;;;2.97;;
61962;SDS011;47927;42.646;23.096;2022-08-18T06:44:52;5.57;;;3.10;;
61962;SDS011;47927;42.646;23.096;2022-08-18T06:47:38;5.82;;;3.10;;
61962;SDS011;47927;42.646;23.096;2022-08-18T06:53:08;4.50;;;2.92;;
61962;SDS011;47927;42.646;23.096;2022-08-18T06:58:07;5.80;;;3.22;;
61962;SDS011;47927;42.646;23.096;2022-08-18T07:03:19;7.35;;;3.30;;
61962;SDS011;47927;42.646;23.096;2022-08-18T07:06:01;5.28;;;3.13;;
61962;SDS011;47927;42.646;23.096;2022-08-18T07:10:55;9.80;;;3.35;;
61962;SDS011;47927;42.646;23.096;2022-08-18T07:13:46;6.60;;;3.20;;
61962;SDS011;47927;42.646;23.096;2022-08-18T07:19:08;7.95;;;3.42;;
61962;SDS011;47927;42.646;23.096;2022-08-18T07:21:36;8.07;;;3.22;;
61962;SDS011;47927;42.646;23.096;2022-08-18T07:24:09;7.22;;;3.38;;
61962;SDS011;47927;42.646;23.096;2022-08-18T07:29:21;13.65;;;4.00;;
61962;SDS011;47927;42.646;23.096;2022-08-18T07:31:50;20.58;;;3.70;;
61962;SDS011;47927;42.646;23.096;2022-08-18T07:37:10;14.13;;;4.13;;
61962;SDS011;47927;42.646;23.096;2022-08-18T07:39:48;12.00;;;3.55;;
61962;SDS011;47927;42.646;23.096;2022-08-18T07:42:40;11.02;;;3.65;;
61962;SDS011;47927;42.646;23.096;2022-08-18T07:47:57;12.57;;;3.05;;
61962;SDS011;47927;42.646;23.096;2022-08-18T07:50:31;15.32;;;3.40;;
61962;SDS011;47927;42.646;23.096;2022-08-18T07:53:12;11.68;;;3.53;;
61962;SDS011;47927;42.646;23.096;2022-08-18T07:55:49;10.57;;;3.80;;
61962;SDS011;47927;42.646;23.096;2022-08-18T08:01:19;9.20;;;3.33;;
61962;SDS011;47927;42.646;23.096;2022-08-18T08:06:51;10.20;;;3.38;;
61962;SDS011;47927;42.646;23.096;2022-08-18T08:11:55;4.90;;;2.90;;
61962;SDS011;47927;42.646;23.096;2022-08-18T08:14:42;9.30;;;3.50;;
61962;SDS011;47927;42.646;23.096;2022-08-18T08:22:27;6.93;;;3.28;;
61962;SDS011;47927;42.646;23.096;2022-08-18T08:30:30;5.50;;;3.22;;
61962;SDS011;47927;42.646;23.096;2022-08-18T08:33:12;9.80;;;3.30;;
61962;SDS011;47927;42.646;23.096;2022-08-18T08:35:49;6.60;;;2.97;;
61962;SDS011;47927;42.646;23.096;2022-08-18T08:38:24;8.23;;;3.20;;
61962;SDS011;47927;42.646;23.096;2022-08-18T08:41:02;4.78;;;3.13;;
61962;SDS011;47927;42.646;23.096;2022-08-18T08:43:35;8.45;;;3.38;;
61962;SDS011;47927;42.646;23.096;2022-08-18T08:46:21;8.10;;;3.22;;
61962;SDS011;47927;42.646;23.096;2022-08-18T08:48:55;5.22;;;2.58;;
61962;SDS011;47927;42.646;23.096;2022-08-18T08:54:03;4.53;;;3.20;;
61962;SDS011;47927;42.646;23.096;2022-08-18T08:57:05;6.43;;;3.25;;
61962;SDS011;47927;42.646;23.096;2022-08-18T08:59:33;5.45;;;2.90;;
61962;SDS011;47927;42.646;23.096;2022-08-18T09:04:56;5.60;;;2.47;;
61962;SDS011;47927;42.646;23.096;2022-08-18T09:13:42;5.22;;;2.50;;
61962;SDS011;47927;42.646;23.096;2022-08-18T09:16:20;6.05;;;2.92;;
61962;SDS011;47927;42.646;23.096;2022-08-18T09:21:23;7.45;;;3.10;;
61962;SDS011;47927;42.646;23.096;2022-08-18T09:23:52;3.60;;;2.65;;
61962;SDS011;47927;42.646;23.096;2022-08-18T09:26:42;4.68;;;2.90;;
61962;SDS011;47927;42.646;23.096;2022-08-18T09:37:25;4.25;;;2.83;;
61962;SDS011;47927;42.646;23.096;2022-08-18T09:40:00;5.70;;;2.85;;
61962;SDS011;47927;42.646;23.096;2022-08-18T09:42:56;6.15;;;2.85;;
61962;SDS011;47927;42.646;23.096;2022-08-18T09:45:40;4.53;;;2.13;;
61962;SDS011;47927;42.646;23.096;2022-08-18T09:48:25;6.18;;;2.50;;
61962;SDS011;47927;42.646;23.096;2022-08-18T09:53:36;6.43;;;2.60;;
61962;SDS011;47927;42.646;23.096;2022-08-18T09:56:11;5.72;;;2.75;;
61962;SDS011;47927;42.646;23.096;2022-08-18T10:01:20;4.57;;;2.20;;
61962;SDS011;47927;42.646;23.096;2022-08-18T10:06:41;3.70;;;2.33;;
61962;SDS011;47927;42.646;23.096;2022-08-18T10:11:42;4.95;;;2.58;;
61962;SDS011;47927;42.646;23.096;2022-08-18T10:14:24;6.38;;;2.03;;
61962;SDS011;47927;42.646;23.096;2022-08-18T10:17:17;4.03;;;2.40;;
61962;SDS011;47927;42.646;23.096;2022-08-18T10:23:10;3.80;;;2.22;;
61962;SDS011;47927;42.646;23.096;2022-08-18T10:25:40;5.18;;;2.58;;
61962;SDS011;47927;42.646;23.096;2022-08-18T10:28:20;3.72;;;2.38;;
61962;SDS011;47927;42.646;23.096;2022-08-18T10:34:38;5.07;;;2.25;;
61962;SDS011;47927;42.646;23.096;2022-08-18T10:37:12;3.87;;;2.63;;
61962;SDS011;47927;42.646;23.096;2022-08-18T10:40:04;4.70;;;2.78;;
61962;SDS011;47927;42.646;23.096;2022-08-18T10:42:44;6.10;;;2.40;;
61962;SDS011;47927;42.646;23.096;2022-08-18T10:45:29;4.53;;;2.50;;
61962;SDS011;47927;42.646;23.096;2022-08-18T10:50:41;4.28;;;2.17;;
61962;SDS011;47927;42.646;23.096;2022-08-18T10:53:37;4.50;;;2.20;;
61962;SDS011;47927;42.646;23.096;2022-08-18T10:56:32;6.32;;;2.20;;
61962;SDS011;47927;42.646;23.096;2022-08-18T11:01:58;4.78;;;2.65;;
61962;SDS011;47927;42.646;23.096;2022-08-18T11:04:56;3.42;;;2.05;;
61962;SDS011;47927;42.646;23.096;2022-08-18T11:07:24;5.38;;;2.05;;
61962;SDS011;47927;42.646;23.096;2022-08-18T11:09:53;7.85;;;2.33;;
61962;SDS011;47927;42.646;23.096;2022-08-18T11:12:39;6.50;;;2.50;;
61962;SDS011;47927;42.646;23.096;2022-08-18T11:15:18;4.50;;;2.10;;
61962;SDS011;47927;42.646;23.096;2022-08-18T11:20:30;6.22;;;2.10;;
61962;SDS011;47927;42.646;23.096;2022-08-18T11:22:58;5.80;;;2.22;;
61962;SDS011;47927;42.646;23.096;2022-08-18T11:25:36;7.38;;;2.20;;
61962;SDS011;47927;42.646;23.096;2022-08-18T11:28:13;3.80;;;2.45;;
61962;SDS011;47927;42.646;23.096;2022-08-18T11:30:43;3.45;;;2.20;;
61962;SDS011;47927;42.646;23.096;2022-08-18T11:33:15;4.93;;;2.40;;
61962;SDS011;47927;42.646;23.096;2022-08-18T11:35:46;3.78;;;2.63;;
61962;SDS011;47927;42.646;23.096;2022-08-18T11:38:14;4.47;;;2.35;;
61962;SDS011;47927;42.646;23.096;2022-08-18T11:40:46;6.28;;;2.20;;
61962;SDS011;47927;42.646;23.096;2022-08-18T11:43:22;5.63;;;2.28;;
61962;SDS011;47927;42.646;23.096;2022-08-18T11:45:56;3.53;;;2.17;;
61962;SDS011;47927;42.646;23.096;2022-08-18T11:56:05;5.35;;;2.58;;
61962;SDS011;47927;42.646;23.096;2022-08-18T12:03:58;7.50;;;2.40;;
61962;SDS011;47927;42.646;23.096;2022-08-18T12:06:32;7.95;;;2.20;;
61962;SDS011;47927;42.646;23.096;2022-08-18T12:09:02;3.47;;;2.25;;
61962;SDS011;47927;42.646;23.096;2022-08-18T12:11:57;5.85;;;2.65;;
61962;SDS011;47927;42.646;23.096;2022-08-18T12:14:29;5.28;;;2.67;;
61962;SDS011;47927;42.646;23.096;2022-08-18T12:16:57;4.22;;;2.50;;
61962;SDS011;47927;42.646;23.096;2022-08-18T12:19:24;4.75;;;2.60;;
61962;SDS011;47927;42.646;23.096;2022-08-18T12:21:56;6.50;;;2.53;;
61962;SDS011;47927;42.646;23.096;2022-08-18T12:24:24;6.70;;;2.60;;
61962;SDS011;47927;42.646;23.096;2022-08-18T12:26:52;5.10;;;2.60;;
61962;SDS011;47927;42.646;23.096;2022-08-18T12:29:18;4.47;;;2.50;;
61962;SDS011;47927;42.646;23.096;2022-08-18T12:31:44;4.63;;;2.45;;
61962;SDS011;47927;42.646;23.096;2022-08-18T12:34:11;4.43;;;2.55;;
61962;SDS011;47927;42.646;23.096;2022-08-18T12:36:37;4.45;;;2.25;;
61962;SDS011;47927;42.646;23.096;2022-08-18T12:39:03;7.43;;;2.55;;
61962;SDS011;47927;42.646;23.096;2022-08-18T12:41:29;6.80;;;2.65;;
61962;SDS011;47927;42.646;23.096;2022-08-18T12:43:54;3.47;;;2.28;;
61962;SDS011;47927;42.646;23.096;2022-08-18T12:46:20;6.90;;;2.63;;
61962;SDS011;47927;42.646;23.096;2022-08-18T12:48:46;4.45;;;2.30;;
61962;SDS011;47927;42.646;23.096;2022-08-18T12:51:12;6.03;;;2.35;;
61962;SDS011;47927;42.646;23.096;2022-08-18T12:53:39;3.95;;;2.40;;
61962;SDS011;47927;42.646;23.096;2022-08-18T12:56:06;6.22;;;2.72;;
61962;SDS011;47927;42.646;23.096;2022-08-18T13:01:20;4.93;;;2.50;;
61962;SDS011;47927;42.646;23.096;2022-08-18T13:03:46;3.67;;;2.60;;
61962;SDS011;47927;42.646;23.096;2022-08-18T13:06:12;11.77;;;2.83;;
61962;SDS011;47927;42.646;23.096;2022-08-18T13:08:39;8.32;;;2.60;;
61962;SDS011;47927;42.646;23.096;2022-08-18T13:11:06;4.18;;;2.50;;
61962;SDS011;47927;42.646;23.096;2022-08-18T13:13:38;7.00;;;2.40;;
61962;SDS011;47927;42.646;23.096;2022-08-18T13:16:05;7.93;;;2.60;;
61962;SDS011;47927;42.646;23.096;2022-08-18T13:18:33;4.03;;;2.42;;
61962;SDS011;47927;42.646;23.096;2022-08-18T13:20:59;4.82;;;2.78;;
61962;SDS011;47927;42.646;23.096;2022-08-18T13:23:27;5.53;;;2.77;;
61962;SDS011;47927;42.646;23.096;2022-08-18T13:25:55;5.55;;;2.88;;
61962;SDS011;47927;42.646;23.096;2022-08-18T13:28:22;4.10;;;2.72;;
61962;SDS011;47927;42.646;23.096;2022-08-18T13:30:48;6.72;;;2.53;;
61962;SDS011;47927;42.646;23.096;2022-08-18T13:33:15;13.57;;;3.00;;
61962;SDS011;47927;42.646;23.096;2022-08-18T13:35:43;10.65;;;2.80;;
61962;SDS011;47927;42.646;23.096;2022-08-18T13:38:09;7.80;;;3.05;;
61962;SDS011;47927;42.646;23.096;2022-08-18T13:40:36;9.70;;;2.50;;
61962;SDS011;47927;42.646;23.096;2022-08-18T13:43:02;7.38;;;2.88;;
61962;SDS011;47927;42.646;23.096;2022-08-18T13:45:28;5.38;;;2.83;;
61962;SDS011;47927;42.646;23.096;2022-08-18T13:47:54;5.03;;;2.95;;
61962;SDS011;47927;42.646;23.096;2022-08-18T13:50:19;6.32;;;2.85;;
61962;SDS011;47927;42.646;23.096;2022-08-18T13:52:45;4.63;;;2.95;;
61962;SDS011;47927;42.646;23.096;2022-08-18T13:55:13;7.85;;;2.75;;
61962;SDS011;47927;42.646;23.096;2022-08-18T13:57:40;6.53;;;2.90;;
61962;SDS011;47927;42.646;23.096;2022-08-18T14:00:13;6.65;;;2.97;;
61962;SDS011;47927;42.646;23.096;2022-08-18T14:02:47;4.57;;;3.15;;
61962;SDS011;47927;42.646;23.096;2022-08-18T14:05:18;4.53;;;3.08;;
61962;SDS011;47927;42.646;23.096;2022-08-18T14:07:45;4.70;;;3.38;;
61962;SDS011;47927;42.646;23.096;2022-08-18T14:10:10;4.97;;;2.97;;
61962;SDS011;47927;42.646;23.096;2022-08-18T14:12:37;7.85;;;3.15;;
61962;SDS011;47927;42.646;23.096;2022-08-18T14:15:22;5.22;;;2.83;;
61962;SDS011;47927;42.646;23.096;2022-08-18T14:17:48;5.25;;;2.60;;
61962;SDS011;47927;42.646;23.096;2022-08-18T14:20:14;6.80;;;2.97;;
61962;SDS011;47927;42.646;23.096;2022-08-18T14:23:00;4.10;;;3.00;;
61962;SDS011;47927;42.646;23.096;2022-08-18T14:25:45;5.20;;;2.80;;
61962;SDS011;47927;42.646;23.096;2022-08-18T14:28:30;8.23;;;2.88;;
61962;SDS011;47927;42.646;23.096;2022-08-18T14:30:58;8.52;;;2.90;;
61962;SDS011;47927;42.646;23.096;2022-08-18T14:33:26;7.00;;;3.08;;
61962;SDS011;47927;42.646;23.096;2022-08-18T14:35:53;7.57;;;2.97;;
61962;SDS011;47927;42.646;23.096;2022-08-18T14:38:19;4.88;;;2.97;;
61962;SDS011;47927;42.646;23.096;2022-08-18T14:40:45;4.35;;;2.75;;
61962;SDS011;47927;42.646;23.096;2022-08-18T14:43:13;5.97;;;3.20;;
61962;SDS011;47927;42.646;23.096;2022-08-18T14:45:41;5.03;;;3.17;;
61962;SDS011;47927;42.646;23.096;2022-08-18T14:48:13;5.10;;;3.20;;
61962;SDS011;47927;42.646;23.096;2022-08-18T14:50:45;5.65;;;3.45;;
61962;SDS011;47927;42.646;23.096;2022-08-18T14:53:16;5.18;;;3.30;;
61962;SDS011;47927;42.646;23.096;2022-08-18T14:55:49;4.72;;;3.40;;
61962;SDS011;47927;42.646;23.096;2022-08-18T14:58:20;4.18;;;3.05;;
61962;SDS011;47927;42.646;23.096;2022-08-18T15:00:55;4.63;;;2.92;;
61962;SDS011;47927;42.646;23.096;2022-08-18T15:03:23;4.65;;;3.10;;
61962;SDS011;47927;42.646;23.096;2022-08-18T15:05:51;3.88;;;2.92;;
61962;SDS011;47927;42.646;23.096;2022-08-18T15:08:17;7.45;;;3.35;;
61962;SDS011;47927;42.646;23.096;2022-08-18T15:10:43;9.73;;;3.20;;
61962;SDS011;47927;42.646;23.096;2022-08-18T15:13:10;6.60;;;3.28;;
61962;SDS011;47927;42.646;23.096;2022-08-18T15:15:35;6.38;;;3.17;;
61962;SDS011;47927;42.646;23.096;2022-08-18T15:18:02;5.03;;;3.10;;
61962;SDS011;47927;42.646;23.096;2022-08-18T15:20:28;6.18;;;3.25;;
61962;SDS011;47927;42.646;23.096;2022-08-18T15:22:54;6.85;;;3.58;;
61962;SDS011;47927;42.646;23.096;2022-08-18T15:25:43;6.90;;;3.65;;
61962;SDS011;47927;42.646;23.096;2022-08-18T15:30:46;9.45;;;3.40;;
61962;SDS011;47927;42.646;23.096;2022-08-18T15:33:14;7.25;;;3.63;;
61962;SDS011;47927;42.646;23.096;2022-08-18T15:35:41;6.68;;;3.22;;
61962;SDS011;47927;42.646;23.096;2022-08-18T15:38:08;6.15;;;3.25;;
61962;SDS011;47927;42.646;23.096;2022-08-18T15:40:37;5.38;;;3.45;;
61962;SDS011;47927;42.646;23.096;2022-08-18T15:43:11;7.57;;;3.22;;
61962;SDS011;47927;42.646;23.096;2022-08-18T15:45:39;5.25;;;3.40;;
61962;SDS011;47927;42.646;23.096;2022-08-18T15:48:08;4.40;;;3.10;;
61962;SDS011;47927;42.646;23.096;2022-08-18T15:50:35;8.60;;;3.30;;
61962;SDS011;47927;42.646;23.096;2022-08-18T15:53:03;5.20;;;3.80;;
61962;SDS011;47927;42.646;23.096;2022-08-18T15:55:30;8.27;;;3.45;;
61962;SDS011;47927;42.646;23.096;2022-08-18T15:57:59;4.78;;;3.50;;
61962;SDS011;47927;42.646;23.096;2022-08-18T16:00:26;6.18;;;3.75;;
61962;SDS011;47927;42.646;23.096;2022-08-18T16:02:56;5.28;;;3.20;;
61962;SDS011;47927;42.646;23.096;2022-08-18T16:05:25;6.07;;;3.50;;
61962;SDS011;47927;42.646;23.096;2022-08-18T16:07:53;6.30;;;3.80;;
61962;SDS011;47927;42.646;23.096;2022-08-18T16:10:20;8.07;;;3.95;;
61962;SDS011;47927;42.646;23.096;2022-08-18T16:12:48;8.05;;;3.90;;
61962;SDS011;47927;42.646;23.096;2022-08-18T16:15:19;9.65;;;3.40;;
61962;SDS011;47927;42.646;23.096;2022-08-18T16:17:47;10.40;;;3.58;;
61962;SDS011;47927;42.646;23.096;2022-08-18T16:20:17;5.07;;;3.17;;
61962;SDS011;47927;42.646;23.096;2022-08-18T16:22:44;4.32;;;3.28;;
61962;SDS011;47927;42.646;23.096;2022-08-18T16:25:10;5.95;;;3.72;;
61962;SDS011;47927;42.646;23.096;2022-08-18T16:27:36;6.75;;;3.72;;
61962;SDS011;47927;42.646;23.096;2022-08-18T16:30:06;5.38;;;3.33;;
61962;SDS011;47927;42.646;23.096;2022-08-18T16:32:33;5.38;;;3.45;;
61962;SDS011;47927;42.646;23.096;2022-08-18T16:34:59;5.28;;;3.38;;
61962;SDS011;47927;42.646;23.096;2022-08-18T16:37:25;5.75;;;3.70;;
61962;SDS011;47927;42.646;23.096;2022-08-18T16:39:51;7.78;;;3.10;;
61962;SDS011;47927;42.646;23.096;2022-08-18T16:42:17;7.90;;;3.42;;
61962;SDS011;47927;42.646;23.096;2022-08-18T16:45:02;6.10;;;3.13;;
61962;SDS011;47927;42.646;23.096;2022-08-18T16:47:30;6.15;;;3.45;;
61962;SDS011;47927;42.646;23.096;2022-08-18T16:49:56;8.07;;;3.50;;
61962;SDS011;47927;42.646;23.096;2022-08-18T16:52:40;4.55;;;3.40;;
61962;SDS011;47927;42.646;23.096;2022-08-18T16:55:07;5.45;;;3.30;;
61962;SDS011;47927;42.646;23.096;2022-08-18T16:57:38;4.67;;;3.47;;
61962;SDS011;47927;42.646;23.096;2022-08-18T17:00:25;4.88;;;3.53;;
61962;SDS011;47927;42.646;23.096;2022-08-18T17:03:10;8.25;;;3.60;;
61962;SDS011;47927;42.646;23.096;2022-08-18T17:06:01;5.40;;;3.45;;
61962;SDS011;47927;42.646;23.096;2022-08-18T17:08:31;5.60;;;3.42;;
61962;SDS011;47927;42.646;23.096;2022-08-18T17:10:59;5.75;;;3.45;;